Time;durP1;ratioP1;P1;durP2;ratioP2;P2;SDS_P1;SDS_P2;PMS_P1;PMS_P2;Temp;Humidity;BMP_temperature;BMP_pressure;BME280_temperature;BME280_humidity;BME280_pressure;Samples;Min_cycle;Max_cycle;Signal;HPM_P1;HPM_P2
2024/03/31 00:01:26;;;;;;;1999.90;999.90;;;;;;;;;;5053665;28;20004;-86
2024/03/31 00:03:52;;;;;;;1999.90;999.90;;;;;;;;;;5052023;28;20060;-85
2024/03/31 00:06:18;;;;;;;1999.90;999.90;;;;;;;;;;5053527;28;20060;-85
2024/03/31 00:08:44;;;;;;;1999.90;999.90;;;;;;;;;;5053035;28;20052;-86
2024/03/31 00:11:12;;;;;;;1999.90;999.90;;;;;;;;;;5054429;28;20040;-86
2024/03/31 00:13:39;;;;;;;1999.90;999.90;;;;;;;;;;5053989;28;20124;-85
2024/03/31 00:16:06;;;;;;;1999.90;999.90;;;;;;;;;;5052797;28;20560;-85
2024/03/31 00:18:32;;;;;;;1999.90;999.90;;;;;;;;;;5053318;28;20041;-85
2024/03/31 00:20:59;;;;;;;1999.90;999.90;;;;;;;;;;5053188;28;20430;-85
2024/03/31 00:23:25;;;;;;;1999.90;999.90;;;;;;;;;;5053773;28;20089;-85
2024/03/31 00:25:56;;;;;;;1999.90;999.90;;;;;;;;;;5051487;28;20084;-86
2024/03/31 00:28:22;;;;;;;1999.90;999.90;;;;;;;;;;5053579;28;20121;-85
2024/03/31 00:30:55;;;;;;;1999.90;999.90;;;;;;;;;;5052736;28;20481;-85
2024/03/31 00:33:20;;;;;;;1999.90;999.90;;;;;;;;;;5051533;28;20496;-85
2024/03/31 00:35:52;;;;;;;1999.90;999.90;;;;;;;;;;5053500;28;20127;-86
2024/03/31 00:38:18;;;;;;;1999.90;999.90;;;;;;;;;;5053458;28;20442;-86
2024/03/31 00:40:45;;;;;;;1999.90;999.90;;;;;;;;;;5053282;28;20053;-84
2024/03/31 00:43:11;;;;;;;1999.90;999.90;;;;;;;;;;5051492;28;20044;-85
2024/03/31 00:45:38;;;;;;;1999.90;999.90;;;;;;;;;;5052090;28;20536;-85
2024/03/31 00:48:05;;;;;;;1999.90;999.90;;;;;;;;;;5053024;28;20478;-86
2024/03/31 00:50:32;;;;;;;1999.90;999.90;;;;;;;;;;5052334;28;20371;-84
2024/03/31 00:52:58;;;;;;;1999.90;999.90;;;;;;;;;;5050568;28;20523;-85
2024/03/31 00:55:24;;;;;;;1999.90;999.90;;;;;;;;;;5051012;28;20084;-86
2024/03/31 00:57:50;;;;;;;1999.90;999.90;;;;;;;;;;5052846;28;20497;-85
2024/03/31 01:00:17;;;;;;;1999.90;999.90;;;;;;;;;;5051448;28;20087;-86
2024/03/31 01:02:43;;;;;;;1999.90;999.90;;;;;;;;;;5052589;28;20486;-86
2024/03/31 01:05:11;;;;;;;1999.90;999.90;;;;;;;;;;5052252;28;20056;-86
2024/03/31 01:07:37;;;;;;;1999.90;999.90;;;;;;;;;;5052628;28;20072;-86
2024/03/31 01:10:04;;;;;;;1999.90;999.90;;;;;;;;;;5052850;28;20178;-85
2024/03/31 01:12:31;;;;;;;1999.90;999.90;;;;;;;;;;5051402;28;20051;-86
2024/03/31 01:14:58;;;;;;;1999.90;999.90;;;;;;;;;;5050219;28;20090;-86
2024/03/31 01:17:24;;;;;;;1999.90;999.90;;;;;;;;;;5051662;28;20044;-86
2024/03/31 01:19:51;;;;;;;1999.90;999.90;;;;;;;;;;5053270;28;20527;-86
2024/03/31 01:22:19;;;;;;;1999.90;999.90;;;;;;;;;;5052732;28;20092;-86
2024/03/31 01:24:47;;;;;;;1999.90;999.90;;;;;;;;;;5050852;28;20049;-87
2024/03/31 01:27:12;;;;;;;1999.90;999.90;;;;;;;;;;5052638;28;20072;-86
2024/03/31 01:29:39;;;;;;;1999.90;999.90;;;;;;;;;;5052369;28;20089;-86
2024/03/31 01:32:05;;;;;;;1999.90;999.90;;;;;;;;;;5050249;28;20072;-88
2024/03/31 01:34:33;;;;;;;1999.90;999.90;;;;;;;;;;5051968;28;20056;-86
2024/03/31 01:37:01;;;;;;;1999.90;999.90;;;;;;;;;;5051496;28;20076;-87
2024/03/31 01:39:27;;;;;;;1999.90;999.90;;;;;;;;;;5051484;28;20057;-87
2024/03/31 01:41:56;;;;;;;1999.90;999.90;;;;;;;;;;5049963;28;20042;-87
2024/03/31 01:44:22;;;;;;;1999.90;999.90;;;;;;;;;;5050493;28;20080;-86
2024/03/31 01:46:48;;;;;;;1999.90;999.90;;;;;;;;;;5051560;28;20477;-87
2024/03/31 01:49:15;;;;;;;1999.90;999.90;;;;;;;;;;5052705;28;20422;-87
2024/03/31 01:51:41;;;;;;;1999.90;999.90;;;;;;;;;;5052142;28;20144;-86
2024/03/31 01:54:07;;;;;;;1999.90;999.90;;;;;;;;;;5052240;28;20128;-87
2024/03/31 01:56:33;;;;;;;1999.90;999.90;;;;;;;;;;5053052;28;20148;-88
2024/03/31 01:59:01;;;;;;;1999.90;999.90;;;;;;;;;;5051655;28;20055;-88
2024/03/31 02:01:27;;;;;;;1999.90;999.90;;;;;;;;;;5051223;28;20049;-87
2024/03/31 02:03:53;;;;;;;1999.90;999.90;;;;;;;;;;5051871;28;20060;-88
2024/03/31 02:06:19;;;;;;;1999.90;999.90;;;;;;;;;;5052343;28;20064;-88
2024/03/31 02:08:46;;;;;;;1999.90;999.90;;;;;;;;;;5052504;28;20049;-88
2024/03/31 02:11:11;;;;;;;1999.90;999.90;;;;;;;;;;5050973;28;20429;-87
2024/03/31 02:13:38;;;;;;;1999.90;999.90;;;;;;;;;;5052677;28;20075;-87
2024/03/31 02:16:06;;;;;;;1999.90;999.90;;;;;;;;;;5049824;28;20045;-88
2024/03/31 02:18:32;;;;;;;1999.90;999.90;;;;;;;;;;5051985;28;20044;-87
2024/03/31 02:20:58;;;;;;;1999.90;999.90;;;;;;;;;;5051205;28;20048;-87
2024/03/31 02:23:24;;;;;;;1999.90;999.90;;;;;;;;;;5051394;28;20076;-88
2024/03/31 02:25:50;;;;;;;1999.90;999.90;;;;;;;;;;5052679;28;20075;-87
2024/03/31 02:28:16;;;;;;;1999.90;999.90;;;;;;;;;;5051417;28;20053;-88
2024/03/31 02:30:43;;;;;;;1999.90;999.90;;;;;;;;;;5052294;28;20052;-88
2024/03/31 02:33:09;;;;;;;1999.90;999.90;;;;;;;;;;5052712;28;20131;-87
2024/03/31 02:35:38;;;;;;;1999.90;999.90;;;;;;;;;;5051118;28;20055;-87
2024/03/31 02:38:04;;;;;;;1999.90;999.90;;;;;;;;;;5052522;28;20060;-87
2024/03/31 02:40:30;;;;;;;1999.90;999.90;;;;;;;;;;5050651;28;20049;-87
2024/03/31 02:42:56;;;;;;;1999.90;999.90;;;;;;;;;;5051891;28;20049;-87
2024/03/31 02:45:22;;;;;;;1999.90;999.90;;;;;;;;;;5051867;28;20064;-87
2024/03/31 02:47:48;;;;;;;1999.90;999.90;;;;;;;;;;5050422;28;20076;-87
2024/03/31 02:50:16;;;;;;;1999.90;999.90;;;;;;;;;;5051809;28;20045;-87
2024/03/31 02:52:41;;;;;;;1999.90;999.90;;;;;;;;;;5050353;28;20071;-87
2024/03/31 02:55:08;;;;;;;1999.90;999.90;;;;;;;;;;5051399;28;20090;-87
2024/03/31 02:57:33;;;;;;;1999.90;999.90;;;;;;;;;;5052059;28;20060;-87
2024/03/31 03:00:00;;;;;;;1999.90;999.90;;;;;;;;;;5051142;28;20052;-87
2024/03/31 03:02:25;;;;;;;1999.90;999.90;;;;;;;;;;5051365;28;20086;-87
2024/03/31 03:04:52;;;;;;;1999.90;999.90;;;;;;;;;;5052577;28;20051;-86
2024/03/31 03:07:19;;;;;;;1999.90;999.90;;;;;;;;;;5051383;28;20119;-86
2024/03/31 03:09:46;;;;;;;1999.90;999.90;;;;;;;;;;5051401;28;20114;-86
2024/03/31 03:12:11;;;;;;;1999.90;999.90;;;;;;;;;;5050748;28;20053;-86
2024/03/31 03:14:38;;;;;;;1999.90;999.90;;;;;;;;;;5051513;28;20543;-87
2024/03/31 03:17:07;;;;;;;1999.90;999.90;;;;;;;;;;5049814;28;20060;-87
2024/03/31 03:19:33;;;;;;;1999.90;999.90;;;;;;;;;;5049395;28;20041;-86
2024/03/31 03:21:59;;;;;;;1999.90;999.90;;;;;;;;;;5051004;28;20048;-87
2024/03/31 03:24:27;;;;;;;1999.90;999.90;;;;;;;;;;5051276;28;20508;-86
2024/03/31 03:26:53;;;;;;;1999.90;999.90;;;;;;;;;;5050976;28;20078;-86
2024/03/31 03:29:19;;;;;;;1999.90;999.90;;;;;;;;;;5050576;28;20079;-86
2024/03/31 03:31:46;;;;;;;1999.90;999.90;;;;;;;;;;5050908;28;20044;-86
2024/03/31 03:34:13;;;;;;;1999.90;999.90;;;;;;;;;;5050766;28;20477;-85
2024/03/31 03:36:38;;;;;;;1999.90;999.90;;;;;;;;;;5050626;28;20053;-86
2024/03/31 03:39:05;;;;;;;1999.90;999.90;;;;;;;;;;5050556;28;20048;-86
2024/03/31 03:41:33;;;;;;;1999.90;999.90;;;;;;;;;;5050657;28;20056;-86
2024/03/31 03:43:59;;;;;;;1999.90;999.90;;;;;;;;;;5051194;28;20095;-86
2024/03/31 03:46:25;;;;;;;1999.90;999.90;;;;;;;;;;5049996;28;20056;-86
2024/03/31 03:48:52;;;;;;;1999.90;999.90;;;;;;;;;;5049944;28;20053;-85
2024/03/31 03:51:17;;;;;;;1999.90;999.90;;;;;;;;;;5050345;28;20052;-86
2024/03/31 03:53:44;;;;;;;1999.90;999.90;;;;;;;;;;5049764;28;20049;-86
2024/03/31 03:56:09;;;;;;;1999.90;999.90;;;;;;;;;;5050849;28;20051;-86
2024/03/31 03:58:37;;;;;;;1999.90;999.90;;;;;;;;;;5050728;28;20053;-86
2024/03/31 04:01:03;;;;;;;1999.90;999.90;;;;;;;;;;5049521;28;20052;-86
2024/03/31 04:03:29;;;;;;;1999.90;999.90;;;;;;;;;;5051190;28;20045;-86
2024/03/31 04:05:55;;;;;;;1999.90;999.90;;;;;;;;;;5049411;28;20052;-86
2024/03/31 04:08:22;;;;;;;1999.90;999.90;;;;;;;;;;5049892;28;20048;-85
2024/03/31 04:10:47;;;;;;;1999.90;999.90;;;;;;;;;;5048981;28;20048;-86
2024/03/31 04:13:14;;;;;;;1999.90;999.90;;;;;;;;;;5050356;28;20418;-86
2024/03/31 04:15:41;;;;;;;1999.90;999.90;;;;;;;;;;5049691;28;20048;-86
2024/03/31 04:18:08;;;;;;;1999.90;999.90;;;;;;;;;;5049970;28;20456;-86
2024/03/31 04:20:39;;;;;;;1999.90;999.90;;;;;;;;;;5047077;28;20116;-86
2024/03/31 04:23:06;;;;;;;1999.90;999.90;;;;;;;;;;5050338;28;20134;-86
2024/03/31 04:25:32;;;;;;;1999.90;999.90;;;;;;;;;;5050145;28;20056;-85
2024/03/31 04:27:58;;;;;;;1999.90;999.90;;;;;;;;;;5050069;28;20068;-85
2024/03/31 04:30:24;;;;;;;1999.90;999.90;;;;;;;;;;5052717;28;20056;-85
2024/03/31 04:32:51;;;;;;;1999.90;999.90;;;;;;;;;;5053362;28;20041;-85
2024/03/31 04:35:17;;;;;;;1999.90;999.90;;;;;;;;;;5053014;28;20049;-86
2024/03/31 04:37:48;;;;;;;1999.90;999.90;;;;;;;;;;5051759;28;20509;-85
2024/03/31 04:40:14;;;;;;;1999.90;999.90;;;;;;;;;;5051833;28;20049;-86
2024/03/31 04:42:40;;;;;;;1999.90;999.90;;;;;;;;;;5051004;28;20059;-85
2024/03/31 04:45:06;;;;;;;1999.90;999.90;;;;;;;;;;5052344;28;20049;-85
2024/03/31 04:47:32;;;;;;;1999.90;999.90;;;;;;;;;;5053228;28;20057;-85
2024/03/31 04:49:59;;;;;;;1999.90;999.90;;;;;;;;;;5052313;28;20045;-85
2024/03/31 04:52:26;;;;;;;1999.90;999.90;;;;;;;;;;5052456;28;20103;-85
2024/03/31 04:54:51;;;;;;;1999.90;999.90;;;;;;;;;;5052524;28;20051;-84
2024/03/31 04:57:18;;;;;;;1999.90;999.90;;;;;;;;;;5052926;28;20053;-85
2024/03/31 04:59:44;;;;;;;1999.90;999.90;;;;;;;;;;5053711;28;20057;-85
2024/03/31 05:02:10;;;;;;;1999.90;999.90;;;;;;;;;;5052416;28;20049;-85
2024/03/31 05:04:36;;;;;;;1999.90;999.90;;;;;;;;;;5050973;28;20056;-85
2024/03/31 05:07:04;;;;;;;1999.90;999.90;;;;;;;;;;5052782;28;20057;-85
2024/03/31 05:09:32;;;;;;;1999.90;999.90;;;;;;;;;;5050153;28;20414;-85
2024/03/31 05:11:58;;;;;;;1999.90;999.90;;;;;;;;;;5052735;28;20060;-85
2024/03/31 05:14:24;;;;;;;1999.90;999.90;;;;;;;;;;5052635;28;20048;-85
2024/03/31 05:16:51;;;;;;;1999.90;999.90;;;;;;;;;;5053551;28;20045;-85
2024/03/31 05:19:16;;;;;;;1999.90;999.90;;;;;;;;;;5053297;28;20053;-85
2024/03/31 05:21:43;;;;;;;1999.90;999.90;;;;;;;;;;5052319;28;20051;-85
2024/03/31 05:24:10;;;;;;;1999.90;999.90;;;;;;;;;;5052729;28;20059;-85
2024/03/31 05:26:36;;;;;;;1999.90;999.90;;;;;;;;;;5053116;28;20080;-85
2024/03/31 05:29:02;;;;;;;1999.90;999.90;;;;;;;;;;5051551;28;20045;-85
2024/03/31 05:31:28;;;;;;;1999.90;999.90;;;;;;;;;;5051677;28;20053;-85
2024/03/31 05:33:54;;;;;;;1999.90;999.90;;;;;;;;;;5053016;28;20485;-85
2024/03/31 05:36:20;;;;;;;1999.90;999.90;;;;;;;;;;5052231;28;20052;-85
2024/03/31 05:38:46;;;;;;;1999.90;999.90;;;;;;;;;;5051280;28;20055;-85
2024/03/31 05:41:14;;;;;;;1999.90;999.90;;;;;;;;;;5050971;28;20477;-85
2024/03/31 05:43:39;;;;;;;1999.90;999.90;;;;;;;;;;5051261;28;20053;-85
2024/03/31 05:46:06;;;;;;;1999.90;999.90;;;;;;;;;;5050758;28;20394;-86
2024/03/31 05:48:31;;;;;;;1999.90;999.90;;;;;;;;;;5051761;28;20520;-85
2024/03/31 05:50:58;;;;;;;1999.90;999.90;;;;;;;;;;5050811;28;20053;-85
2024/03/31 05:53:23;;;;;;;1999.90;999.90;;;;;;;;;;5052567;28;20045;-86
2024/03/31 05:55:50;;;;;;;1999.90;999.90;;;;;;;;;;5051187;28;20409;-86
2024/03/31 05:58:17;;;;;;;1999.90;999.90;;;;;;;;;;5051651;28;20060;-85
2024/03/31 06:00:43;;;;;;;1999.90;999.90;;;;;;;;;;5049879;28;20059;-85
2024/03/31 06:03:09;;;;;;;1999.90;999.90;;;;;;;;;;5052197;28;20465;-85
2024/03/31 06:05:35;;;;;;;1999.90;999.90;;;;;;;;;;5051646;28;20049;-85
2024/03/31 06:08:01;;;;;;;1999.90;999.90;;;;;;;;;;5051294;28;20053;-86
2024/03/31 06:10:28;;;;;;;1999.90;999.90;;;;;;;;;;5051602;28;20068;-86
2024/03/31 06:12:53;;;;;;;1999.90;999.90;;;;;;;;;;5050821;28;20059;-85
2024/03/31 06:15:21;;;;;;;1999.90;999.90;;;;;;;;;;5050854;28;20400;-86
2024/03/31 06:17:46;;;;;;;1999.90;999.90;;;;;;;;;;5050665;28;20123;-85
2024/03/31 06:20:14;;;;;;;1999.90;999.90;;;;;;;;;;5050135;28;20041;-85
2024/03/31 06:22:39;;;;;;;1999.90;999.90;;;;;;;;;;5050585;28;20077;-86
2024/03/31 06:25:06;;;;;;;1999.90;999.90;;;;;;;;;;5051080;28;20535;-86
2024/03/31 06:27:32;;;;;;;1999.90;999.90;;;;;;;;;;5049417;28;20044;-86
2024/03/31 06:29:59;;;;;;;1999.90;999.90;;;;;;;;;;5051229;28;20095;-86
2024/03/31 06:32:26;;;;;;;1999.90;999.90;;;;;;;;;;5050665;28;20516;-86
2024/03/31 06:34:52;;;;;;;1999.90;999.90;;;;;;;;;;5051387;28;20045;-86
2024/03/31 06:37:18;;;;;;;1999.90;999.90;;;;;;;;;;5049889;28;20060;-86
2024/03/31 06:39:45;;;;;;;1999.90;999.90;;;;;;;;;;5049870;28;20049;-85
2024/03/31 06:42:11;;;;;;;1999.90;999.90;;;;;;;;;;5050869;28;20485;-86
2024/03/31 06:44:37;;;;;;;1999.90;999.90;;;;;;;;;;5050491;28;20113;-86
2024/03/31 06:47:03;;;;;;;1999.90;999.90;;;;;;;;;;5048980;28;20045;-86
2024/03/31 06:49:31;;;;;;;1999.90;999.90;;;;;;;;;;5049171;28;20052;-86
2024/03/31 06:51:57;;;;;;;1999.90;999.90;;;;;;;;;;5049563;28;20049;-86
2024/03/31 06:54:24;;;;;;;1999.90;999.90;;;;;;;;;;5050859;28;20045;-84
2024/03/31 06:56:50;;;;;;;1999.90;999.90;;;;;;;;;;5049780;28;20051;-86
2024/03/31 06:59:16;;;;;;;1999.90;999.90;;;;;;;;;;5049917;28;20136;-85
2024/03/31 07:01:42;;;;;;;1999.90;999.90;;;;;;;;;;5050022;28;20412;-86
2024/03/31 07:04:08;;;;;;;1999.90;999.90;;;;;;;;;;5049958;28;20053;-86
2024/03/31 07:06:35;;;;;;;1999.90;999.90;;;;;;;;;;5050428;28;20496;-85
2024/03/31 07:09:02;;;;;;;1999.90;999.90;;;;;;;;;;5050275;28;20551;-85
2024/03/31 07:11:28;;;;;;;1999.90;999.90;;;;;;;;;;5051137;28;20084;-85
2024/03/31 07:13:54;;;;;;;1999.90;999.90;;;;;;;;;;5051395;28;20441;-85
2024/03/31 07:16:20;;;;;;;1999.90;999.90;;;;;;;;;;5049863;28;20084;-85
2024/03/31 07:18:46;;;;;;;1999.90;999.90;;;;;;;;;;5050362;28;20053;-85
2024/03/31 07:21:12;;;;;;;1999.90;999.90;;;;;;;;;;5049465;28;20054;-85
2024/03/31 07:23:39;;;;;;;1999.90;999.90;;;;;;;;;;5052799;28;20044;-85
2024/03/31 07:26:05;;;;;;;1999.90;999.90;;;;;;;;;;5049809;28;20052;-85
2024/03/31 07:28:31;;;;;;;1999.90;999.90;;;;;;;;;;5052675;28;20045;-85
2024/03/31 07:30:57;;;;;;;1999.90;999.90;;;;;;;;;;5051958;28;20481;-85
2024/03/31 07:33:23;;;;;;;1999.90;999.90;;;;;;;;;;5052530;28;20128;-86
2024/03/31 07:35:52;;;;;;;1999.90;999.90;;;;;;;;;;5052671;28;20053;-85
2024/03/31 07:38:18;;;;;;;1999.90;999.90;;;;;;;;;;5050768;28;20056;-85
2024/03/31 07:40:45;;;;;;;1999.90;999.90;;;;;;;;;;5054204;28;20497;-86
2024/03/31 07:43:12;;;;;;;1999.90;999.90;;;;;;;;;;5051223;28;20045;-85
2024/03/31 07:45:37;;;;;;;1999.90;999.90;;;;;;;;;;5050695;28;20072;-85
2024/03/31 07:48:04;;;;;;;1999.90;999.90;;;;;;;;;;5050372;28;20501;-85
2024/03/31 07:50:30;;;;;;;1999.90;999.90;;;;;;;;;;5047305;28;20056;-86
2024/03/31 07:52:56;;;;;;;1999.90;999.90;;;;;;;;;;5049048;28;20424;-85
2024/03/31 07:55:22;;;;;;;1999.90;999.90;;;;;;;;;;5050384;28;20057;-86
2024/03/31 07:57:52;;;;;;;1999.90;999.90;;;;;;;;;;5049541;28;20045;-86
2024/03/31 08:00:17;;;;;;;1999.90;999.90;;;;;;;;;;5050017;28;20064;-86
2024/03/31 08:02:44;;;;;;;1999.90;999.90;;;;;;;;;;5051534;28;20049;-86
2024/03/31 08:05:09;;;;;;;1999.90;999.90;;;;;;;;;;5051581;28;20056;-85
2024/03/31 08:07:36;;;;;;;1999.90;999.90;;;;;;;;;;5053748;28;20041;-86
2024/03/31 08:10:03;;;;;;;1999.90;999.90;;;;;;;;;;5052797;28;20057;-86
2024/03/31 08:12:29;;;;;;;1999.90;999.90;;;;;;;;;;5053528;28;20080;-86
2024/03/31 08:14:56;;;;;;;1999.90;999.90;;;;;;;;;;5053722;28;20045;-86
2024/03/31 08:17:23;;;;;;;1999.90;999.90;;;;;;;;;;5052933;28;20137;-86
2024/03/31 08:19:48;;;;;;;1999.90;999.90;;;;;;;;;;5053918;28;20044;-86
2024/03/31 08:22:15;;;;;;;1999.90;999.90;;;;;;;;;;5052988;28;20500;-86
2024/03/31 08:24:40;;;;;;;1999.90;999.90;;;;;;;;;;5053352;28;20056;-85
2024/03/31 08:27:07;;;;;;;1999.90;999.90;;;;;;;;;;5052815;28;20502;-86
2024/03/31 08:29:32;;;;;;;1999.90;999.90;;;;;;;;;;5053091;28;20052;-85
2024/03/31 08:32:00;;;;;;;1999.90;999.90;;;;;;;;;;5053049;28;20421;-86
2024/03/31 08:34:26;;;;;;;1999.90;999.90;;;;;;;;;;5051379;28;20052;-86
2024/03/31 08:36:52;;;;;;;1999.90;999.90;;;;;;;;;;5053642;28;20041;-86
2024/03/31 08:39:18;;;;;;;1999.90;999.90;;;;;;;;;;5051995;28;20053;-86
2024/03/31 08:41:50;;;;;;;1999.90;999.90;;;;;;;;;;5052860;28;20056;-86
2024/03/31 08:44:16;;;;;;;1999.90;999.90;;;;;;;;;;5052385;28;20069;-85
2024/03/31 08:46:43;;;;;;;1999.90;999.90;;;;;;;;;;5052837;28;20069;-86
2024/03/31 08:49:11;;;;;;;1999.90;999.90;;;;;;;;;;5050285;28;20045;-86
2024/03/31 08:51:39;;;;;;;1999.90;999.90;;;;;;;;;;5052468;28;20076;-84
2024/03/31 08:54:05;;;;;;;1999.90;999.90;;;;;;;;;;5052402;28;20071;-86
2024/03/31 08:56:31;;;;;;;1999.90;999.90;;;;;;;;;;5052913;28;20095;-86
2024/03/31 08:58:59;;;;;;;1999.90;999.90;;;;;;;;;;5052185;28;20064;-86
2024/03/31 09:01:26;;;;;;;1999.90;999.90;;;;;;;;;;5052104;28;20576;-86
2024/03/31 09:03:52;;;;;;;1999.90;999.90;;;;;;;;;;5051972;28;20059;-86
2024/03/31 09:06:20;;;;;;;1999.90;999.90;;;;;;;;;;5050574;28;20061;-87
2024/03/31 09:08:54;;;;;;;1999.90;999.90;;;;;;;;;;5052676;28;20405;-87
2024/03/31 09:11:21;;;;;;;1999.90;999.90;;;;;;;;;;5052794;28;20041;-87
2024/03/31 09:13:46;;;;;;;1999.90;999.90;;;;;;;;;;5052652;28;20384;-87
2024/03/31 09:16:13;;;;;;;1999.90;999.90;;;;;;;;;;5053155;28;20045;-87
2024/03/31 09:18:39;;;;;;;1999.90;999.90;;;;;;;;;;5053530;28;20044;-89
2024/03/31 09:21:05;;;;;;;1999.90;999.90;;;;;;;;;;5052686;28;20059;-86
2024/03/31 09:23:32;;;;;;;1999.90;999.90;;;;;;;;;;5052491;28;20427;-85
2024/03/31 09:26:00;;;;;;;1999.90;999.90;;;;;;;;;;5052937;28;20049;-85
2024/03/31 09:28:25;;;;;;;1999.90;999.90;;;;;;;;;;5052431;28;20501;-86
2024/03/31 09:30:52;;;;;;;1999.90;999.90;;;;;;;;;;5051966;28;20576;-85
2024/03/31 09:33:17;;;;;;;1999.90;999.90;;;;;;;;;;5052239;28;20056;-86
2024/03/31 09:35:45;;;;;;;1999.90;999.90;;;;;;;;;;5051479;28;20076;-85
2024/03/31 09:38:11;;;;;;;1999.90;999.90;;;;;;;;;;5050621;28;20045;-86
2024/03/31 09:40:40;;;;;;;1999.90;999.90;;;;;;;;;;5053438;28;20059;-85
2024/03/31 09:43:06;;;;;;;1999.90;999.90;;;;;;;;;;5049298;28;20556;-86
2024/03/31 09:45:32;;;;;;;1999.90;999.90;;;;;;;;;;5051858;28;20060;-85
2024/03/31 09:48:06;;;;;;;1999.90;999.90;;;;;;;;;;5051904;28;20052;-85
2024/03/31 09:50:38;;;;;;;1999.90;999.90;;;;;;;;;;5052257;28;20060;-86
2024/03/31 09:53:05;;;;;;;1999.90;999.90;;;;;;;;;;5050841;28;20086;-86
2024/03/31 09:55:38;;;;;;;1999.90;999.90;;;;;;;;;;5052367;28;20075;-87
2024/03/31 09:58:08;;;;;;;1999.90;999.90;;;;;;;;;;5052919;28;20048;-86
2024/03/31 10:00:35;;;;;;;1999.90;999.90;;;;;;;;;;5053523;28;20110;-86
2024/03/31 10:03:06;;;;;;;1999.90;999.90;;;;;;;;;;5054206;28;20141;-86
2024/03/31 10:05:35;;;;;;;1999.90;999.90;;;;;;;;;;5051599;28;20056;-87
2024/03/31 10:08:02;;;;;;;1999.90;999.90;;;;;;;;;;5051309;28;20329;-86
2024/03/31 10:10:29;;;;;;;1999.90;999.90;;;;;;;;;;5051992;28;20053;-86
2024/03/31 10:12:57;;;;;;;1999.90;999.90;;;;;;;;;;5051945;28;20056;-87
2024/03/31 10:15:25;;;;;;;1999.90;999.90;;;;;;;;;;5057730;28;20052;-88
2024/03/31 10:17:51;;;;;;;1999.90;999.90;;;;;;;;;;5056645;28;20083;-88
2024/03/31 10:20:19;;;;;;;1999.90;999.90;;;;;;;;;;5056897;28;20057;-86
2024/03/31 10:22:45;;;;;;;1999.90;999.90;;;;;;;;;;5059074;28;20041;-87
2024/03/31 10:25:12;;;;;;;1999.90;999.90;;;;;;;;;;5062141;28;20048;-86
2024/03/31 10:27:40;;;;;;;1999.90;999.90;;;;;;;;;;5062427;28;20052;-88
2024/03/31 10:30:08;;;;;;;1999.90;999.90;;;;;;;;;;5062272;28;20064;-86
2024/03/31 10:32:36;;;;;;;1999.90;999.90;;;;;;;;;;5062903;28;20405;-88
2024/03/31 10:35:04;;;;;;;1999.90;999.90;;;;;;;;;;5062060;28;20116;-87
2024/03/31 10:37:30;;;;;;;1999.90;999.90;;;;;;;;;;5060556;28;20059;-87
2024/03/31 10:39:58;;;;;;;1999.90;999.90;;;;;;;;;;5057860;28;20135;-88
2024/03/31 10:42:24;;;;;;;1999.90;999.90;;;;;;;;;;5055620;28;20500;-88
2024/03/31 10:44:53;;;;;;;1999.90;999.90;;;;;;;;;;5057202;28;20512;-88
2024/03/31 10:47:19;;;;;;;1999.90;999.90;;;;;;;;;;5059848;28;20056;-87
2024/03/31 10:49:47;;;;;;;1999.90;999.90;;;;;;;;;;5059134;28;20053;-87
2024/03/31 10:52:13;;;;;;;1999.90;999.90;;;;;;;;;;5056528;28;20103;-89
2024/03/31 10:54:40;;;;;;;1999.90;999.90;;;;;;;;;;5050151;28;20106;-88
2024/03/31 10:57:10;;;;;;;1999.90;999.90;;;;;;;;;;5051526;28;20045;-89
2024/03/31 10:59:38;;;;;;;1999.90;999.90;;;;;;;;;;5053483;28;20045;-88
2024/03/31 11:02:10;;;;;;;1999.90;999.90;;;;;;;;;;5052046;28;20049;-89
2024/03/31 11:04:37;;;;;;;1999.90;999.90;;;;;;;;;;5051911;28;20092;-88
2024/03/31 11:07:05;;;;;;;1999.90;999.90;;;;;;;;;;5050432;28;20056;-92
2024/03/31 11:09:32;;;;;;;1999.90;999.90;;;;;;;;;;5054348;28;20056;-87
2024/03/31 11:11:58;;;;;;;1999.90;999.90;;;;;;;;;;5051166;28;20055;-88
2024/03/31 11:14:25;;;;;;;1999.90;999.90;;;;;;;;;;5052591;28;20375;-92
2024/03/31 11:16:51;;;;;;;1999.90;999.90;;;;;;;;;;5051680;28;20060;-89
2024/03/31 11:19:20;;;;;;;1999.90;999.90;;;;;;;;;;5052383;28;20120;-87
2024/03/31 11:21:46;;;;;;;1999.90;999.90;;;;;;;;;;5051767;28;20056;-88
2024/03/31 11:24:16;;;;;;;1999.90;999.90;;;;;;;;;;5050483;28;20037;-88
2024/03/31 11:26:42;;;;;;;1999.90;999.90;;;;;;;;;;5050592;28;20056;-88
2024/03/31 11:29:09;;;;;;;1999.90;999.90;;;;;;;;;;5051809;28;20045;-88
2024/03/31 11:31:36;;;;;;;1999.90;999.90;;;;;;;;;;5051509;28;20489;-88
2024/03/31 11:34:03;;;;;;;1999.90;999.90;;;;;;;;;;5052946;28;20102;-88
2024/03/31 11:36:28;;;;;;;1999.90;999.90;;;;;;;;;;5047941;28;20051;-89
2024/03/31 11:38:55;;;;;;;1999.90;999.90;;;;;;;;;;5054876;28;20049;-89
2024/03/31 11:41:22;;;;;;;1999.90;999.90;;;;;;;;;;5056655;28;20045;-88
2024/03/31 11:43:48;;;;;;;1999.90;999.90;;;;;;;;;;5053771;28;20056;-88
2024/03/31 11:46:16;;;;;;;1999.90;999.90;;;;;;;;;;5057234;28;20064;-89
2024/03/31 11:48:43;;;;;;;1999.90;999.90;;;;;;;;;;5054691;28;20513;-88
2024/03/31 11:51:09;;;;;;;1999.90;999.90;;;;;;;;;;5056611;28;20052;-90
2024/03/31 11:53:35;;;;;;;1999.90;999.90;;;;;;;;;;5055430;28;20060;-88
2024/03/31 11:56:04;;;;;;;1999.90;999.90;;;;;;;;;;5056357;28;20059;-88
2024/03/31 11:58:36;;;;;;;1999.90;999.90;;;;;;;;;;5055602;28;20527;-88
2024/03/31 12:01:02;;;;;;;1999.90;999.90;;;;;;;;;;5054346;28;20071;-88
2024/03/31 12:03:29;;;;;;;1999.90;999.90;;;;;;;;;;5055406;28;20057;-88
2024/03/31 12:05:55;;;;;;;1999.90;999.90;;;;;;;;;;5055750;28;20061;-88
2024/03/31 12:08:22;;;;;;;1999.90;999.90;;;;;;;;;;5055107;28;20052;-88
2024/03/31 12:10:48;;;;;;;1999.90;999.90;;;;;;;;;;5054048;28;20056;-87
2024/03/31 12:13:15;;;;;;;1999.90;999.90;;;;;;;;;;5055078;28;20041;-88
2024/03/31 12:15:42;;;;;;;1999.90;999.90;;;;;;;;;;5054087;28;20052;-88
2024/03/31 12:18:09;;;;;;;1999.90;999.90;;;;;;;;;;5054891;28;20103;-88
2024/03/31 12:20:35;;;;;;;1999.90;999.90;;;;;;;;;;5054894;28;20086;-87
2024/03/31 12:23:04;;;;;;;1999.90;999.90;;;;;;;;;;5054086;28;20457;-87
2024/03/31 12:25:31;;;;;;;1999.90;999.90;;;;;;;;;;5052802;28;20056;-88
2024/03/31 12:27:58;;;;;;;1999.90;999.90;;;;;;;;;;5053280;28;20053;-89
2024/03/31 12:30:24;;;;;;;1999.90;999.90;;;;;;;;;;5053543;28;20076;-88
2024/03/31 12:32:52;;;;;;;1999.90;999.90;;;;;;;;;;5054945;28;20384;-88
2024/03/31 12:35:18;;;;;;;1999.90;999.90;;;;;;;;;;5054764;28;20056;-87
2024/03/31 12:37:45;;;;;;;1999.90;999.90;;;;;;;;;;5055163;28;20037;-88
2024/03/31 12:40:10;;;;;;;1999.90;999.90;;;;;;;;;;5056037;28;20420;-89
2024/03/31 12:42:40;;;;;;;1999.90;999.90;;;;;;;;;;5054833;28;20051;-88
2024/03/31 12:45:06;;;;;;;1999.90;999.90;;;;;;;;;;5055407;28;20045;-87
2024/03/31 12:47:33;;;;;;;1999.90;999.90;;;;;;;;;;5055180;28;20057;-88
2024/03/31 12:50:00;;;;;;;1999.90;999.90;;;;;;;;;;5053408;28;20481;-88
2024/03/31 12:52:28;;;;;;;1999.90;999.90;;;;;;;;;;5054784;28;20049;-88
2024/03/31 12:54:54;;;;;;;1999.90;999.90;;;;;;;;;;5053958;28;20049;-88
2024/03/31 12:57:21;;;;;;;1999.90;999.90;;;;;;;;;;5055146;28;20053;-88
2024/03/31 12:59:47;;;;;;;1999.90;999.90;;;;;;;;;;5052601;28;20053;-88
2024/03/31 13:02:16;;;;;;;1999.90;999.90;;;;;;;;;;5055011;28;20048;-88
2024/03/31 13:04:41;;;;;;;1999.90;999.90;;;;;;;;;;5054001;28;20053;-88
2024/03/31 13:07:10;;;;;;;1999.90;999.90;;;;;;;;;;5052622;28;20198;-88
2024/03/31 13:09:36;;;;;;;1999.90;999.90;;;;;;;;;;5054331;28;20501;-88
2024/03/31 13:12:03;;;;;;;1999.90;999.90;;;;;;;;;;5053486;28;20045;-88
2024/03/31 13:14:29;;;;;;;1999.90;999.90;;;;;;;;;;5054069;28;20053;-89
2024/03/31 13:16:55;;;;;;;1999.90;999.90;;;;;;;;;;5053976;28;20052;-89
2024/03/31 13:19:22;;;;;;;1999.90;999.90;;;;;;;;;;5054421;28;20049;-90
2024/03/31 13:21:47;;;;;;;1999.90;999.90;;;;;;;;;;5054693;28;20041;-89
2024/03/31 13:24:17;;;;;;;1999.90;999.90;;;;;;;;;;5053954;28;20047;-89
2024/03/31 13:26:42;;;;;;;1999.90;999.90;;;;;;;;;;5052174;28;20128;-91
2024/03/31 13:29:09;;;;;;;1999.90;999.90;;;;;;;;;;5054911;28;20121;-90
2024/03/31 13:31:35;;;;;;;1999.90;999.90;;;;;;;;;;5054620;28;20059;-90
2024/03/31 13:34:01;;;;;;;1999.90;999.90;;;;;;;;;;5054821;28;20041;-91
2024/03/31 13:36:27;;;;;;;1999.90;999.90;;;;;;;;;;5056020;28;20418;-90
2024/03/31 13:38:54;;;;;;;1999.90;999.90;;;;;;;;;;5054305;28;20040;-90